Other Surface Observations
Issued by NWS Great Falls, MT

Home | Current Version | Previous Version | Graphics & Text | Print | Product List | Glossary On
Versions: 1 2 3 4 5 6 7 8 9 10 11 12 13 14 15 16 17 18 19 20 21 22 23 24 25 26 27 28 29 30 31 32 33 34 35 36 37 38 39 40 41 42 43 44 45 46 47 48 49 50
000
SXUS55 KTFX 200357
OSOTFX
AREA AWOS OBSERVATIONS
NATIONAL WEATHER SERVICE GREAT FALLS MT
0950 PM MDT SUN OCT 19 2014

METAR KPWD 200400Z AUTO 11005KT 10SM 11/02 A2997 RMK PLENTYWOOD
METAR KPO1 200400Z AUTO 1/4SM 08/03 A2997 RMK POPLAR
METAR K1S3 200400Z AUTO 00000KT 10SM 12/03 A2996 RMK FORSYTH
METAR KS71 200400Z AUTO 08008KT 10SM 11/06 A2988 RMK CHINOOK
METAR K6S0 200400Z AUTO 25005KT 10SM 10/01 A3001 RMK BIG TIMBER
METAR K79S 200400Z AUTO 00000KT 10SM 12/04 A2989 RMK FORT BENTON
METAR KEKS 200400Z AUTO 18008KT 10SM 08/M03 A3011 RMK ENNIS
METAR K38S 200400Z AUTO 00000KT 1/2SM 06/M01 A3002 RMK DEER LODGE
METAR K3U3 200400Z AUTO 19007KT 10SM 08/M03 A3000 RMK ANACONDA
METAR K6S5 200400Z AUTO 16003KT 10SM 07/03 A2993 RMK HAMILTON
METAR KS59 200400Z AUTO 00000KT 10SM 07/06 A2989 RMK LIBBY



USA.gov is the U.S. government's official web portal to all federal, state and local government web resources and services.